sensor_id;sensor_type;location;lat;lon;timestamp;P1;durP1;ratioP1;P2;durP2;ratioP2
735;SDS011;352;48.626;9.238;2023-08-30T00:01:43;11.50;;;10.50;;
735;SDS011;352;48.626;9.238;2023-08-30T00:04:10;11.90;;;10.80;;
735;SDS011;352;48.626;9.238;2023-08-30T00:06:36;11.77;;;10.77;;
735;SDS011;352;48.626;9.238;2023-08-30T00:09:03;12.00;;;10.90;;
735;SDS011;352;48.626;9.238;2023-08-30T00:11:30;11.63;;;10.57;;
735;SDS011;352;48.626;9.238;2023-08-30T00:14:02;12.73;;;11.60;;
735;SDS011;352;48.626;9.238;2023-08-30T00:16:31;12.07;;;10.87;;
735;SDS011;352;48.626;9.238;2023-08-30T00:18:58;12.40;;;11.30;;
735;SDS011;352;48.626;9.238;2023-08-30T00:21:25;12.07;;;10.97;;
735;SDS011;352;48.626;9.238;2023-08-30T00:23:53;11.67;;;10.67;;
735;SDS011;352;48.626;9.238;2023-08-30T00:26:19;12.17;;;11.17;;
735;SDS011;352;48.626;9.238;2023-08-30T00:28:46;11.77;;;10.77;;
735;SDS011;352;48.626;9.238;2023-08-30T00:31:13;11.03;;;10.13;;
735;SDS011;352;48.626;9.238;2023-08-30T00:33:41;11.60;;;10.60;;
735;SDS011;352;48.626;9.238;2023-08-30T00:36:08;11.53;;;10.50;;
735;SDS011;352;48.626;9.238;2023-08-30T00:38:34;11.60;;;10.57;;
735;SDS011;352;48.626;9.238;2023-08-30T00:41:01;12.63;;;11.50;;
735;SDS011;352;48.626;9.238;2023-08-30T00:43:28;11.00;;;10.00;;
735;SDS011;352;48.626;9.238;2023-08-30T00:45:55;10.13;;;9.33;;
735;SDS011;352;48.626;9.238;2023-08-30T00:48:22;11.07;;;10.17;;
735;SDS011;352;48.626;9.238;2023-08-30T00:50:50;11.73;;;10.63;;
735;SDS011;352;48.626;9.238;2023-08-30T00:53:17;11.67;;;10.67;;
735;SDS011;352;48.626;9.238;2023-08-30T00:55:45;12.40;;;11.10;;
735;SDS011;352;48.626;9.238;2023-08-30T00:58:11;12.03;;;11.03;;
735;SDS011;352;48.626;9.238;2023-08-30T01:00:39;13.50;;;12.27;;
735;SDS011;352;48.626;9.238;2023-08-30T01:03:06;12.83;;;11.73;;
735;SDS011;352;48.626;9.238;2023-08-30T01:05:33;12.90;;;11.80;;
735;SDS011;352;48.626;9.238;2023-08-30T01:08:01;12.47;;;11.30;;
735;SDS011;352;48.626;9.238;2023-08-30T01:10:31;12.30;;;11.20;;
735;SDS011;352;48.626;9.238;2023-08-30T01:13:11;13.27;;;12.17;;
735;SDS011;352;48.626;9.238;2023-08-30T01:15:41;12.23;;;11.03;;
735;SDS011;352;48.626;9.238;2023-08-30T01:18:09;12.77;;;11.57;;
735;SDS011;352;48.626;9.238;2023-08-30T01:20:37;12.30;;;11.30;;
735;SDS011;352;48.626;9.238;2023-08-30T01:23:08;12.37;;;11.30;;
735;SDS011;352;48.626;9.238;2023-08-30T01:25:52;13.10;;;12.00;;
735;SDS011;352;48.626;9.238;2023-08-30T01:28:26;12.83;;;11.70;;
735;SDS011;352;48.626;9.238;2023-08-30T01:30:55;13.03;;;11.90;;
735;SDS011;352;48.626;9.238;2023-08-30T01:33:24;12.93;;;11.83;;
735;SDS011;352;48.626;9.238;2023-08-30T01:35:52;12.07;;;11.10;;
735;SDS011;352;48.626;9.238;2023-08-30T01:38:20;13.47;;;12.37;;
735;SDS011;352;48.626;9.238;2023-08-30T01:40:48;12.23;;;11.23;;
735;SDS011;352;48.626;9.238;2023-08-30T01:43:16;13.20;;;12.00;;
735;SDS011;352;48.626;9.238;2023-08-30T01:45:44;12.93;;;11.43;;
735;SDS011;352;48.626;9.238;2023-08-30T01:48:12;11.63;;;10.53;;
735;SDS011;352;48.626;9.238;2023-08-30T01:50:42;15.50;;;10.73;;
735;SDS011;352;48.626;9.238;2023-08-30T01:53:10;11.63;;;10.63;;
735;SDS011;352;48.626;9.238;2023-08-30T01:55:38;12.10;;;10.90;;
735;SDS011;352;48.626;9.238;2023-08-30T01:58:06;11.63;;;10.53;;
735;SDS011;352;48.626;9.238;2023-08-30T02:00:33;12.40;;;11.30;;
735;SDS011;352;48.626;9.238;2023-08-30T02:03:07;12.33;;;11.13;;
735;SDS011;352;48.626;9.238;2023-08-30T02:05:35;12.13;;;10.47;;
735;SDS011;352;48.626;9.238;2023-08-30T02:08:07;12.07;;;11.07;;
735;SDS011;352;48.626;9.238;2023-08-30T02:10:41;11.83;;;10.80;;
735;SDS011;352;48.626;9.238;2023-08-30T02:13:14;11.87;;;10.57;;
735;SDS011;352;48.626;9.238;2023-08-30T02:15:43;13.23;;;11.80;;
735;SDS011;352;48.626;9.238;2023-08-30T02:18:12;11.80;;;10.80;;
735;SDS011;352;48.626;9.238;2023-08-30T02:20:39;11.53;;;10.43;;
735;SDS011;352;48.626;9.238;2023-08-30T02:23:06;11.50;;;10.50;;
735;SDS011;352;48.626;9.238;2023-08-30T02:25:35;12.93;;;10.60;;
735;SDS011;352;48.626;9.238;2023-08-30T02:28:02;12.37;;;11.27;;
735;SDS011;352;48.626;9.238;2023-08-30T02:30:29;12.80;;;10.63;;
735;SDS011;352;48.626;9.238;2023-08-30T02:32:55;11.67;;;10.67;;
735;SDS011;352;48.626;9.238;2023-08-30T02:35:23;11.57;;;10.57;;
735;SDS011;352;48.626;9.238;2023-08-30T02:37:50;10.87;;;9.87;;
735;SDS011;352;48.626;9.238;2023-08-30T02:40:17;12.50;;;11.20;;
735;SDS011;352;48.626;9.238;2023-08-30T02:42:44;11.50;;;10.50;;
735;SDS011;352;48.626;9.238;2023-08-30T02:45:10;11.77;;;10.67;;
735;SDS011;352;48.626;9.238;2023-08-30T02:47:37;11.63;;;10.47;;
735;SDS011;352;48.626;9.238;2023-08-30T02:50:04;11.77;;;10.60;;
735;SDS011;352;48.626;9.238;2023-08-30T02:52:32;11.93;;;10.90;;
735;SDS011;352;48.626;9.238;2023-08-30T02:54:59;12.60;;;9.67;;
735;SDS011;352;48.626;9.238;2023-08-30T02:57:26;11.50;;;10.40;;
735;SDS011;352;48.626;9.238;2023-08-30T02:59:52;11.20;;;9.97;;
735;SDS011;352;48.626;9.238;2023-08-30T03:02:19;11.93;;;10.93;;
735;SDS011;352;48.626;9.238;2023-08-30T03:04:46;11.40;;;10.40;;
735;SDS011;352;48.626;9.238;2023-08-30T03:07:13;11.43;;;10.33;;
735;SDS011;352;48.626;9.238;2023-08-30T03:09:41;11.33;;;10.23;;
735;SDS011;352;48.626;9.238;2023-08-30T03:12:07;12.10;;;11.00;;
735;SDS011;352;48.626;9.238;2023-08-30T03:14:34;13.27;;;12.07;;
735;SDS011;352;48.626;9.238;2023-08-30T03:17:01;12.20;;;10.93;;
735;SDS011;352;48.626;9.238;2023-08-30T03:19:27;12.03;;;10.93;;
735;SDS011;352;48.626;9.238;2023-08-30T03:21:54;13.37;;;12.17;;
735;SDS011;352;48.626;9.238;2023-08-30T03:24:21;12.53;;;11.53;;
735;SDS011;352;48.626;9.238;2023-08-30T03:26:49;12.47;;;11.23;;
735;SDS011;352;48.626;9.238;2023-08-30T03:29:16;11.40;;;10.40;;
735;SDS011;352;48.626;9.238;2023-08-30T03:31:42;11.10;;;10.20;;
735;SDS011;352;48.626;9.238;2023-08-30T03:34:09;14.27;;;10.97;;
735;SDS011;352;48.626;9.238;2023-08-30T03:36:36;11.10;;;10.20;;
735;SDS011;352;48.626;9.238;2023-08-30T03:39:04;11.67;;;10.57;;
735;SDS011;352;48.626;9.238;2023-08-30T03:41:31;12.97;;;10.90;;
735;SDS011;352;48.626;9.238;2023-08-30T03:43:59;11.33;;;10.27;;
735;SDS011;352;48.626;9.238;2023-08-30T03:46:26;13.07;;;11.80;;
735;SDS011;352;48.626;9.238;2023-08-30T03:48:53;10.73;;;9.83;;
735;SDS011;352;48.626;9.238;2023-08-30T03:51:19;13.13;;;11.93;;
735;SDS011;352;48.626;9.238;2023-08-30T03:53:46;12.33;;;10.37;;
735;SDS011;352;48.626;9.238;2023-08-30T03:56:13;12.47;;;11.37;;
735;SDS011;352;48.626;9.238;2023-08-30T03:58:39;12.13;;;11.10;;
735;SDS011;352;48.626;9.238;2023-08-30T04:01:07;13.00;;;11.80;;
735;SDS011;352;48.626;9.238;2023-08-30T04:03:34;13.20;;;12.03;;
735;SDS011;352;48.626;9.238;2023-08-30T04:06:01;11.30;;;10.13;;
735;SDS011;352;48.626;9.238;2023-08-30T04:08:28;11.97;;;10.97;;
735;SDS011;352;48.626;9.238;2023-08-30T04:10:54;10.10;;;9.30;;
735;SDS011;352;48.626;9.238;2023-08-30T04:13:21;11.23;;;10.23;;
735;SDS011;352;48.626;9.238;2023-08-30T04:15:48;10.97;;;10.00;;
735;SDS011;352;48.626;9.238;2023-08-30T04:18:17;11.97;;;10.93;;
735;SDS011;352;48.626;9.238;2023-08-30T04:20:44;11.20;;;10.30;;
735;SDS011;352;48.626;9.238;2023-08-30T04:23:12;11.87;;;10.87;;
735;SDS011;352;48.626;9.238;2023-08-30T04:25:39;11.77;;;10.67;;
735;SDS011;352;48.626;9.238;2023-08-30T04:28:06;12.50;;;11.30;;
735;SDS011;352;48.626;9.238;2023-08-30T04:30:35;13.30;;;11.77;;
735;SDS011;352;48.626;9.238;2023-08-30T04:33:02;13.67;;;12.37;;
735;SDS011;352;48.626;9.238;2023-08-30T04:35:30;14.37;;;12.87;;
735;SDS011;352;48.626;9.238;2023-08-30T04:37:58;12.77;;;11.57;;
735;SDS011;352;48.626;9.238;2023-08-30T04:40:25;12.80;;;11.70;;
735;SDS011;352;48.626;9.238;2023-08-30T04:42:52;11.60;;;10.50;;
735;SDS011;352;48.626;9.238;2023-08-30T04:45:19;13.20;;;11.90;;
735;SDS011;352;48.626;9.238;2023-08-30T04:47:45;12.43;;;11.30;;
735;SDS011;352;48.626;9.238;2023-08-30T04:50:13;12.07;;;11.00;;
735;SDS011;352;48.626;9.238;2023-08-30T04:52:41;13.87;;;12.47;;
735;SDS011;352;48.626;9.238;2023-08-30T04:55:08;11.83;;;10.60;;
735;SDS011;352;48.626;9.238;2023-08-30T04:57:36;13.03;;;11.83;;
735;SDS011;352;48.626;9.238;2023-08-30T05:00:03;13.40;;;12.20;;
735;SDS011;352;48.626;9.238;2023-08-30T05:02:30;13.33;;;12.17;;
735;SDS011;352;48.626;9.238;2023-08-30T05:04:57;12.20;;;10.30;;
735;SDS011;352;48.626;9.238;2023-08-30T05:07:24;12.50;;;11.30;;
735;SDS011;352;48.626;9.238;2023-08-30T05:09:52;10.70;;;9.80;;
735;SDS011;352;48.626;9.238;2023-08-30T05:12:19;11.90;;;10.80;;
735;SDS011;352;48.626;9.238;2023-08-30T05:14:46;13.50;;;12.10;;
735;SDS011;352;48.626;9.238;2023-08-30T05:17:12;12.47;;;11.40;;
735;SDS011;352;48.626;9.238;2023-08-30T05:19:39;13.37;;;12.17;;
735;SDS011;352;48.626;9.238;2023-08-30T05:22:06;12.90;;;11.70;;
735;SDS011;352;48.626;9.238;2023-08-30T05:24:33;12.70;;;11.40;;
735;SDS011;352;48.626;9.238;2023-08-30T05:27:01;12.63;;;11.53;;
735;SDS011;352;48.626;9.238;2023-08-30T05:29:28;12.20;;;11.10;;
735;SDS011;352;48.626;9.238;2023-08-30T05:31:55;12.63;;;11.40;;
735;SDS011;352;48.626;9.238;2023-08-30T05:34:22;11.57;;;10.57;;
735;SDS011;352;48.626;9.238;2023-08-30T05:36:50;12.43;;;11.07;;
735;SDS011;352;48.626;9.238;2023-08-30T05:39:17;12.70;;;11.50;;
735;SDS011;352;48.626;9.238;2023-08-30T05:41:44;11.27;;;10.27;;
735;SDS011;352;48.626;9.238;2023-08-30T05:44:12;11.17;;;10.20;;
735;SDS011;352;48.626;9.238;2023-08-30T05:46:39;10.93;;;9.97;;
735;SDS011;352;48.626;9.238;2023-08-30T05:49:06;11.60;;;10.70;;
735;SDS011;352;48.626;9.238;2023-08-30T05:51:32;11.83;;;10.67;;
735;SDS011;352;48.626;9.238;2023-08-30T05:53:59;11.23;;;10.33;;
735;SDS011;352;48.626;9.238;2023-08-30T05:56:26;11.40;;;10.50;;
735;SDS011;352;48.626;9.238;2023-08-30T05:58:52;11.73;;;10.70;;
735;SDS011;352;48.626;9.238;2023-08-30T06:01:20;11.03;;;10.03;;
735;SDS011;352;48.626;9.238;2023-08-30T06:03:47;12.23;;;11.03;;
735;SDS011;352;48.626;9.238;2023-08-30T06:06:15;11.60;;;10.60;;
735;SDS011;352;48.626;9.238;2023-08-30T06:08:42;11.27;;;10.27;;
735;SDS011;352;48.626;9.238;2023-08-30T06:11:08;10.60;;;9.60;;
735;SDS011;352;48.626;9.238;2023-08-30T06:13:35;11.37;;;10.33;;
735;SDS011;352;48.626;9.238;2023-08-30T06:16:02;9.60;;;8.80;;
735;SDS011;352;48.626;9.238;2023-08-30T06:18:30;10.97;;;9.87;;
735;SDS011;352;48.626;9.238;2023-08-30T06:20:57;10.03;;;9.23;;
735;SDS011;352;48.626;9.238;2023-08-30T06:23:24;10.33;;;9.43;;
735;SDS011;352;48.626;9.238;2023-08-30T06:25:54;10.47;;;9.47;;
735;SDS011;352;48.626;9.238;2023-08-30T06:28:21;9.87;;;9.07;;
735;SDS011;352;48.626;9.238;2023-08-30T06:30:48;10.37;;;9.47;;
735;SDS011;352;48.626;9.238;2023-08-30T06:33:15;9.73;;;8.80;;
735;SDS011;352;48.626;9.238;2023-08-30T06:35:43;11.90;;;9.30;;
735;SDS011;352;48.626;9.238;2023-08-30T06:38:10;10.00;;;9.10;;
735;SDS011;352;48.626;9.238;2023-08-30T06:40:37;10.20;;;9.30;;
735;SDS011;352;48.626;9.238;2023-08-30T06:43:10;9.60;;;8.90;;
735;SDS011;352;48.626;9.238;2023-08-30T06:45:37;9.40;;;8.50;;
735;SDS011;352;48.626;9.238;2023-08-30T06:48:05;9.50;;;8.70;;
735;SDS011;352;48.626;9.238;2023-08-30T06:50:32;9.43;;;8.63;;
735;SDS011;352;48.626;9.238;2023-08-30T06:53:00;8.63;;;7.93;;
735;SDS011;352;48.626;9.238;2023-08-30T06:55:30;9.50;;;8.60;;
735;SDS011;352;48.626;9.238;2023-08-30T06:57:58;9.37;;;8.47;;
735;SDS011;352;48.626;9.238;2023-08-30T07:00:25;8.73;;;7.90;;
735;SDS011;352;48.626;9.238;2023-08-30T07:02:52;8.83;;;8.03;;
735;SDS011;352;48.626;9.238;2023-08-30T07:05:19;8.57;;;7.93;;
735;SDS011;352;48.626;9.238;2023-08-30T07:07:46;9.10;;;8.30;;
735;SDS011;352;48.626;9.238;2023-08-30T07:10:14;8.80;;;8.10;;
735;SDS011;352;48.626;9.238;2023-08-30T07:12:40;8.57;;;7.97;;
735;SDS011;352;48.626;9.238;2023-08-30T07:15:07;9.80;;;9.00;;
735;SDS011;352;48.626;9.238;2023-08-30T07:17:35;9.57;;;8.30;;
735;SDS011;352;48.626;9.238;2023-08-30T07:20:01;8.67;;;7.90;;
735;SDS011;352;48.626;9.238;2023-08-30T07:22:30;8.97;;;8.27;;
735;SDS011;352;48.626;9.238;2023-08-30T07:24:56;9.90;;;9.00;;
735;SDS011;352;48.626;9.238;2023-08-30T07:27:24;9.80;;;8.47;;
735;SDS011;352;48.626;9.238;2023-08-30T07:29:53;8.63;;;7.97;;
735;SDS011;352;48.626;9.238;2023-08-30T07:32:21;8.27;;;7.53;;
735;SDS011;352;48.626;9.238;2023-08-30T07:34:48;7.97;;;7.30;;
735;SDS011;352;48.626;9.238;2023-08-30T07:37:18;7.50;;;6.90;;
735;SDS011;352;48.626;9.238;2023-08-30T07:39:45;8.10;;;7.40;;
735;SDS011;352;48.626;9.238;2023-08-30T07:42:13;7.80;;;7.10;;
735;SDS011;352;48.626;9.238;2023-08-30T07:44:41;7.67;;;7.07;;
735;SDS011;352;48.626;9.238;2023-08-30T07:47:08;7.17;;;6.60;;
735;SDS011;352;48.626;9.238;2023-08-30T07:49:35;7.33;;;6.77;;
735;SDS011;352;48.626;9.238;2023-08-30T07:52:02;7.00;;;6.47;;
735;SDS011;352;48.626;9.238;2023-08-30T07:54:29;6.13;;;5.53;;
735;SDS011;352;48.626;9.238;2023-08-30T07:56:57;8.27;;;6.50;;
735;SDS011;352;48.626;9.238;2023-08-30T07:59:24;6.43;;;5.97;;
735;SDS011;352;48.626;9.238;2023-08-30T08:01:53;7.10;;;6.40;;
735;SDS011;352;48.626;9.238;2023-08-30T08:04:20;7.90;;;6.63;;
735;SDS011;352;48.626;9.238;2023-08-30T08:06:47;6.80;;;6.30;;
735;SDS011;352;48.626;9.238;2023-08-30T08:09:13;6.50;;;6.00;;
735;SDS011;352;48.626;9.238;2023-08-30T08:11:40;7.50;;;6.40;;
735;SDS011;352;48.626;9.238;2023-08-30T08:14:08;6.50;;;6.00;;
735;SDS011;352;48.626;9.238;2023-08-30T08:16:35;11.97;;;6.93;;
735;SDS011;352;48.626;9.238;2023-08-30T08:19:03;6.13;;;5.63;;
735;SDS011;352;48.626;9.238;2023-08-30T08:21:31;7.10;;;6.60;;
735;SDS011;352;48.626;9.238;2023-08-30T08:23:57;6.17;;;5.57;;
735;SDS011;352;48.626;9.238;2023-08-30T08:26:24;6.13;;;5.73;;
735;SDS011;352;48.626;9.238;2023-08-30T08:28:51;6.90;;;6.30;;
735;SDS011;352;48.626;9.238;2023-08-30T08:31:18;6.33;;;5.93;;
735;SDS011;352;48.626;9.238;2023-08-30T08:33:44;6.47;;;5.97;;
735;SDS011;352;48.626;9.238;2023-08-30T08:36:12;5.50;;;5.10;;
735;SDS011;352;48.626;9.238;2023-08-30T08:38:39;5.87;;;5.27;;
735;SDS011;352;48.626;9.238;2023-08-30T08:41:06;5.40;;;5.00;;
735;SDS011;352;48.626;9.238;2023-08-30T08:43:34;6.40;;;5.90;;
735;SDS011;352;48.626;9.238;2023-08-30T08:46:02;5.53;;;5.07;;
735;SDS011;352;48.626;9.238;2023-08-30T08:48:31;5.17;;;4.73;;
735;SDS011;352;48.626;9.238;2023-08-30T08:51:04;5.70;;;5.30;;
735;SDS011;352;48.626;9.238;2023-08-30T08:53:32;6.10;;;5.50;;
735;SDS011;352;48.626;9.238;2023-08-30T08:55:59;7.43;;;5.50;;
735;SDS011;352;48.626;9.238;2023-08-30T08:58:28;6.37;;;5.70;;
735;SDS011;352;48.626;9.238;2023-08-30T09:00:55;5.20;;;4.80;;
735;SDS011;352;48.626;9.238;2023-08-30T09:03:22;5.10;;;4.60;;
735;SDS011;352;48.626;9.238;2023-08-30T09:05:49;5.40;;;4.90;;
735;SDS011;352;48.626;9.238;2023-08-30T09:08:16;5.00;;;4.60;;
735;SDS011;352;48.626;9.238;2023-08-30T09:10:44;4.83;;;4.43;;
735;SDS011;352;48.626;9.238;2023-08-30T09:13:14;4.83;;;4.50;;
735;SDS011;352;48.626;9.238;2023-08-30T09:15:41;4.70;;;4.40;;
735;SDS011;352;48.626;9.238;2023-08-30T09:18:14;4.30;;;4.00;;
735;SDS011;352;48.626;9.238;2023-08-30T09:20:41;3.87;;;3.57;;
735;SDS011;352;48.626;9.238;2023-08-30T09:23:15;4.53;;;4.13;;
735;SDS011;352;48.626;9.238;2023-08-30T09:25:42;5.03;;;4.50;;
735;SDS011;352;48.626;9.238;2023-08-30T09:28:12;5.07;;;3.90;;
735;SDS011;352;48.626;9.238;2023-08-30T09:30:38;4.10;;;3.80;;
735;SDS011;352;48.626;9.238;2023-08-30T09:33:05;5.00;;;4.50;;
735;SDS011;352;48.626;9.238;2023-08-30T09:35:32;4.20;;;3.73;;
735;SDS011;352;48.626;9.238;2023-08-30T09:38:15;5.23;;;4.73;;
735;SDS011;352;48.626;9.238;2023-08-30T09:40:43;3.47;;;3.27;;
735;SDS011;352;48.626;9.238;2023-08-30T09:43:12;4.30;;;4.00;;
735;SDS011;352;48.626;9.238;2023-08-30T09:45:39;3.90;;;3.60;;
735;SDS011;352;48.626;9.238;2023-08-30T09:48:07;4.60;;;4.30;;
735;SDS011;352;48.626;9.238;2023-08-30T09:50:34;4.30;;;4.00;;
735;SDS011;352;48.626;9.238;2023-08-30T09:53:03;3.90;;;3.60;;
735;SDS011;352;48.626;9.238;2023-08-30T09:55:34;4.03;;;3.73;;
735;SDS011;352;48.626;9.238;2023-08-30T09:58:03;4.10;;;3.70;;
735;SDS011;352;48.626;9.238;2023-08-30T10:00:30;3.90;;;3.70;;
735;SDS011;352;48.626;9.238;2023-08-30T10:02:58;4.50;;;4.20;;
735;SDS011;352;48.626;9.238;2023-08-30T10:05:27;4.73;;;4.43;;
735;SDS011;352;48.626;9.238;2023-08-30T10:07:55;4.43;;;4.03;;
735;SDS011;352;48.626;9.238;2023-08-30T10:10:22;5.50;;;5.10;;
735;SDS011;352;48.626;9.238;2023-08-30T10:12:49;4.60;;;4.20;;
735;SDS011;352;48.626;9.238;2023-08-30T10:15:18;4.93;;;4.53;;
735;SDS011;352;48.626;9.238;2023-08-30T10:17:47;4.70;;;4.33;;
735;SDS011;352;48.626;9.238;2023-08-30T10:20:17;4.60;;;4.30;;
735;SDS011;352;48.626;9.238;2023-08-30T10:22:46;4.37;;;4.03;;
735;SDS011;352;48.626;9.238;2023-08-30T10:25:16;4.70;;;4.30;;
735;SDS011;352;48.626;9.238;2023-08-30T10:27:47;4.23;;;4.03;;
735;SDS011;352;48.626;9.238;2023-08-30T10:30:16;4.20;;;3.80;;
735;SDS011;352;48.626;9.238;2023-08-30T10:32:46;4.40;;;4.10;;
735;SDS011;352;48.626;9.238;2023-08-30T10:35:14;4.70;;;4.30;;
735;SDS011;352;48.626;9.238;2023-08-30T10:37:42;5.50;;;3.90;;
735;SDS011;352;48.626;9.238;2023-08-30T10:40:08;4.30;;;4.00;;
735;SDS011;352;48.626;9.238;2023-08-30T10:42:36;4.40;;;4.10;;
735;SDS011;352;48.626;9.238;2023-08-30T10:45:04;4.23;;;4.03;;
735;SDS011;352;48.626;9.238;2023-08-30T10:47:33;3.90;;;3.70;;
735;SDS011;352;48.626;9.238;2023-08-30T10:50:04;4.57;;;4.30;;
735;SDS011;352;48.626;9.238;2023-08-30T10:52:31;4.80;;;4.50;;
735;SDS011;352;48.626;9.238;2023-08-30T10:55:05;4.60;;;4.27;;
735;SDS011;352;48.626;9.238;2023-08-30T10:57:32;3.67;;;3.47;;
735;SDS011;352;48.626;9.238;2023-08-30T11:00:06;3.80;;;3.60;;
735;SDS011;352;48.626;9.238;2023-08-30T11:02:36;4.27;;;4.07;;
735;SDS011;352;48.626;9.238;2023-08-30T11:05:05;3.67;;;3.47;;
735;SDS011;352;48.626;9.238;2023-08-30T11:07:33;3.80;;;3.60;;
735;SDS011;352;48.626;9.238;2023-08-30T11:10:00;3.97;;;3.67;;
735;SDS011;352;48.626;9.238;2023-08-30T11:12:28;5.30;;;3.80;;
735;SDS011;352;48.626;9.238;2023-08-30T11:14:55;3.53;;;3.33;;
735;SDS011;352;48.626;9.238;2023-08-30T11:17:22;3.40;;;3.20;;
735;SDS011;352;48.626;9.238;2023-08-30T11:19:51;3.77;;;3.47;;
735;SDS011;352;48.626;9.238;2023-08-30T11:22:24;3.57;;;3.23;;
735;SDS011;352;48.626;9.238;2023-08-30T11:24:51;3.73;;;3.53;;
735;SDS011;352;48.626;9.238;2023-08-30T11:27:18;3.97;;;3.67;;
735;SDS011;352;48.626;9.238;2023-08-30T11:29:45;4.10;;;3.70;;
735;SDS011;352;48.626;9.238;2023-08-30T11:32:12;4.57;;;3.27;;
735;SDS011;352;48.626;9.238;2023-08-30T11:34:38;3.70;;;3.40;;
735;SDS011;352;48.626;9.238;2023-08-30T11:37:06;3.67;;;3.37;;
735;SDS011;352;48.626;9.238;2023-08-30T11:39:33;4.70;;;3.63;;
735;SDS011;352;48.626;9.238;2023-08-30T11:42:00;3.67;;;3.47;;
735;SDS011;352;48.626;9.238;2023-08-30T11:44:30;4.00;;;3.40;;
735;SDS011;352;48.626;9.238;2023-08-30T11:46:57;3.33;;;3.13;;
735;SDS011;352;48.626;9.238;2023-08-30T11:49:25;3.70;;;3.30;;
735;SDS011;352;48.626;9.238;2023-08-30T11:51:52;3.70;;;3.50;;
735;SDS011;352;48.626;9.238;2023-08-30T11:54:22;3.57;;;3.37;;
735;SDS011;352;48.626;9.238;2023-08-30T11:56:50;3.50;;;3.30;;
735;SDS011;352;48.626;9.238;2023-08-30T11:59:20;3.60;;;3.40;;
735;SDS011;352;48.626;9.238;2023-08-30T12:01:47;3.60;;;3.40;;
735;SDS011;352;48.626;9.238;2023-08-30T12:04:14;4.50;;;4.10;;
735;SDS011;352;48.626;9.238;2023-08-30T12:06:43;4.43;;;4.13;;
735;SDS011;352;48.626;9.238;2023-08-30T12:09:11;3.83;;;3.60;;
735;SDS011;352;48.626;9.238;2023-08-30T12:11:40;6.00;;;3.70;;
735;SDS011;352;48.626;9.238;2023-08-30T12:14:06;3.60;;;3.30;;
735;SDS011;352;48.626;9.238;2023-08-30T12:16:33;3.50;;;3.30;;
735;SDS011;352;48.626;9.238;2023-08-30T12:19:09;3.50;;;3.30;;
735;SDS011;352;48.626;9.238;2023-08-30T12:21:40;2.47;;;2.37;;
735;SDS011;352;48.626;9.238;2023-08-30T12:24:08;2.30;;;2.10;;
735;SDS011;352;48.626;9.238;2023-08-30T12:26:34;3.30;;;2.50;;
735;SDS011;352;48.626;9.238;2023-08-30T12:29:04;2.00;;;1.90;;
735;SDS011;352;48.626;9.238;2023-08-30T12:31:31;2.50;;;2.30;;
735;SDS011;352;48.626;9.238;2023-08-30T12:33:58;2.43;;;2.33;;
735;SDS011;352;48.626;9.238;2023-08-30T12:36:25;2.53;;;2.43;;
735;SDS011;352;48.626;9.238;2023-08-30T12:38:52;2.70;;;2.60;;
735;SDS011;352;48.626;9.238;2023-08-30T12:41:19;2.90;;;2.70;;
735;SDS011;352;48.626;9.238;2023-08-30T12:43:48;2.43;;;2.33;;
735;SDS011;352;48.626;9.238;2023-08-30T12:46:16;2.90;;;2.70;;
735;SDS011;352;48.626;9.238;2023-08-30T12:48:43;2.43;;;2.33;;
735;SDS011;352;48.626;9.238;2023-08-30T12:51:10;2.60;;;2.50;;
735;SDS011;352;48.626;9.238;2023-08-30T12:53:38;2.40;;;2.30;;
735;SDS011;352;48.626;9.238;2023-08-30T12:56:05;2.30;;;2.20;;
735;SDS011;352;48.626;9.238;2023-08-30T12:58:32;2.40;;;2.20;;
735;SDS011;352;48.626;9.238;2023-08-30T13:00:59;2.23;;;2.13;;
735;SDS011;352;48.626;9.238;2023-08-30T13:03:27;2.20;;;2.10;;
735;SDS011;352;48.626;9.238;2023-08-30T13:05:53;2.30;;;2.20;;
735;SDS011;352;48.626;9.238;2023-08-30T13:08:20;2.10;;;2.00;;
735;SDS011;352;48.626;9.238;2023-08-30T13:10:47;2.47;;;2.37;;
735;SDS011;352;48.626;9.238;2023-08-30T13:13:14;2.47;;;2.27;;
735;SDS011;352;48.626;9.238;2023-08-30T13:15:40;2.30;;;2.20;;
735;SDS011;352;48.626;9.238;2023-08-30T13:18:07;2.60;;;2.50;;
735;SDS011;352;48.626;9.238;2023-08-30T13:20:38;2.67;;;2.47;;
735;SDS011;352;48.626;9.238;2023-08-30T13:23:05;2.77;;;2.57;;
735;SDS011;352;48.626;9.238;2023-08-30T13:25:32;2.27;;;2.17;;
735;SDS011;352;48.626;9.238;2023-08-30T13:27:58;6.13;;;2.60;;
735;SDS011;352;48.626;9.238;2023-08-30T13:30:25;2.43;;;2.23;;
735;SDS011;352;48.626;9.238;2023-08-30T13:32:52;2.17;;;2.07;;
735;SDS011;352;48.626;9.238;2023-08-30T13:35:18;2.83;;;2.63;;
735;SDS011;352;48.626;9.238;2023-08-30T13:37:46;2.50;;;2.30;;
735;SDS011;352;48.626;9.238;2023-08-30T13:40:15;2.50;;;2.40;;
735;SDS011;352;48.626;9.238;2023-08-30T13:42:42;2.30;;;2.20;;
735;SDS011;352;48.626;9.238;2023-08-30T13:45:09;2.93;;;2.73;;
735;SDS011;352;48.626;9.238;2023-08-30T13:47:37;2.43;;;2.33;;
735;SDS011;352;48.626;9.238;2023-08-30T13:50:03;3.30;;;3.00;;
735;SDS011;352;48.626;9.238;2023-08-30T13:52:31;3.30;;;3.10;;
735;SDS011;352;48.626;9.238;2023-08-30T13:55:00;3.30;;;3.10;;
735;SDS011;352;48.626;9.238;2023-08-30T13:57:26;3.10;;;2.90;;
735;SDS011;352;48.626;9.238;2023-08-30T13:59:53;3.13;;;2.87;;
735;SDS011;352;48.626;9.238;2023-08-30T14:02:20;3.60;;;3.30;;
735;SDS011;352;48.626;9.238;2023-08-30T14:04:46;2.80;;;2.63;;
735;SDS011;352;48.626;9.238;2023-08-30T14:07:14;2.90;;;2.70;;
735;SDS011;352;48.626;9.238;2023-08-30T14:09:41;3.27;;;3.07;;
735;SDS011;352;48.626;9.238;2023-08-30T14:12:09;2.93;;;2.73;;
735;SDS011;352;48.626;9.238;2023-08-30T14:14:36;3.67;;;3.20;;
735;SDS011;352;48.626;9.238;2023-08-30T14:17:03;2.87;;;2.67;;
735;SDS011;352;48.626;9.238;2023-08-30T14:19:29;2.90;;;2.70;;
735;SDS011;352;48.626;9.238;2023-08-30T14:21:56;2.87;;;2.67;;
735;SDS011;352;48.626;9.238;2023-08-30T14:24:24;2.50;;;2.40;;
735;SDS011;352;48.626;9.238;2023-08-30T14:26:51;3.10;;;2.90;;
735;SDS011;352;48.626;9.238;2023-08-30T14:29:19;3.13;;;2.93;;
735;SDS011;352;48.626;9.238;2023-08-30T14:31:47;2.77;;;2.67;;
735;SDS011;352;48.626;9.238;2023-08-30T14:34:14;3.10;;;2.90;;
735;SDS011;352;48.626;9.238;2023-08-30T14:36:41;3.33;;;3.03;;
735;SDS011;352;48.626;9.238;2023-08-30T14:39:08;3.30;;;2.97;;
735;SDS011;352;48.626;9.238;2023-08-30T14:41:35;3.13;;;2.93;;
735;SDS011;352;48.626;9.238;2023-08-30T14:44:03;3.80;;;3.47;;
735;SDS011;352;48.626;9.238;2023-08-30T14:46:31;3.10;;;2.83;;
735;SDS011;352;48.626;9.238;2023-08-30T14:48:58;3.83;;;3.40;;
735;SDS011;352;48.626;9.238;2023-08-30T14:51:25;3.60;;;3.40;;
735;SDS011;352;48.626;9.238;2023-08-30T14:53:51;3.97;;;3.60;;
735;SDS011;352;48.626;9.238;2023-08-30T14:56:18;3.50;;;3.20;;
735;SDS011;352;48.626;9.238;2023-08-30T14:58:45;4.10;;;3.80;;
735;SDS011;352;48.626;9.238;2023-08-30T15:01:14;3.10;;;2.90;;
735;SDS011;352;48.626;9.238;2023-08-30T15:03:42;3.13;;;2.93;;
735;SDS011;352;48.626;9.238;2023-08-30T15:06:09;3.20;;;3.00;;
735;SDS011;352;48.626;9.238;2023-08-30T15:08:36;3.40;;;3.20;;
735;SDS011;352;48.626;9.238;2023-08-30T15:11:03;3.57;;;3.37;;
735;SDS011;352;48.626;9.238;2023-08-30T15:13:30;4.10;;;3.70;;
735;SDS011;352;48.626;9.238;2023-08-30T15:15:56;3.50;;;3.20;;
735;SDS011;352;48.626;9.238;2023-08-30T15:18:23;3.20;;;2.90;;
735;SDS011;352;48.626;9.238;2023-08-30T15:20:52;3.70;;;3.40;;
735;SDS011;352;48.626;9.238;2023-08-30T15:23:20;2.87;;;2.67;;
735;SDS011;352;48.626;9.238;2023-08-30T15:25:47;4.23;;;3.57;;
735;SDS011;352;48.626;9.238;2023-08-30T15:28:15;3.90;;;3.67;;
735;SDS011;352;48.626;9.238;2023-08-30T15:30:42;3.57;;;3.37;;
735;SDS011;352;48.626;9.238;2023-08-30T15:33:09;3.10;;;2.90;;
735;SDS011;352;48.626;9.238;2023-08-30T15:35:36;3.10;;;2.90;;